createdAt,value
2022-11-03T00:04:50.594Z,32.9
2022-11-03T00:09:32.909Z,32.4
2022-11-03T00:14:15.217Z,35.4
2022-11-03T00:18:57.429Z,37.2
2022-11-03T00:23:39.759Z,32.5
2022-11-03T00:28:22.054Z,21.2
2022-11-03T00:33:04.277Z,34.8
2022-11-03T00:37:46.576Z,32.5
2022-11-03T00:42:28.890Z,25.9
2022-11-03T00:47:11.215Z,24.5
2022-11-03T00:51:53.423Z,26.5
2022-11-03T00:56:34.796Z,28.9
2022-11-03T01:01:17.045Z,21.4
2022-11-03T01:05:59.346Z,29.9
2022-11-03T01:10:41.616Z,37.5
2022-11-03T01:15:23.881Z,28.8
2022-11-03T01:20:06.255Z,24.9
2022-11-03T01:24:48.389Z,29.4
2022-11-03T01:29:30.706Z,27.4
2022-11-03T01:34:13.024Z,23.9
2022-11-03T01:38:55.301Z,19.79
2022-11-03T01:43:37.542Z,26.5
2022-11-03T01:48:19.860Z,18.1
2022-11-03T01:53:02.168Z,23.9
2022-11-03T01:57:43.395Z,23.5
2022-11-03T02:02:25.687Z,25.3
2022-11-03T02:07:07.998Z,19.9
2022-11-03T02:11:50.229Z,25.9
2022-11-03T02:21:14.835Z,29
2022-11-03T02:25:57.150Z,22.7
2022-11-03T02:30:39.357Z,23.8
2022-11-03T02:35:21.670Z,26.2
2022-11-03T02:40:03.983Z,25.1
2022-11-03T02:44:46.211Z,23.4
2022-11-03T02:49:28.562Z,31.5
2022-11-03T02:54:10.817Z,19.2
2022-11-03T02:58:52.131Z,33.09
2022-11-03T03:03:34.340Z,32.9
2022-11-03T03:08:16.656Z,28.1
2022-11-03T03:12:58.965Z,33.8
2022-11-03T03:17:41.179Z,35.9
2022-11-03T03:22:23.488Z,33.7
2022-11-03T03:27:05.819Z,29.4
2022-11-03T03:31:48.115Z,27.5
2022-11-03T03:36:30.326Z,38.3
2022-11-03T03:41:12.668Z,37.9
2022-11-03T03:45:54.951Z,46.7
2022-11-03T03:50:37.191Z,33.3
2022-11-03T03:55:19.473Z,53.2
2022-11-03T04:00:00.801Z,57.9
2022-11-03T04:04:43.126Z,103
2022-11-03T04:09:25.310Z,107.7
2022-11-03T04:14:07.629Z,52.4
2022-11-03T04:18:49.932Z,69.4
2022-11-03T04:23:32.146Z,71.8
2022-11-03T04:28:14.467Z,68.9
2022-11-03T04:32:56.769Z,99.8
2022-11-03T04:42:21.292Z,104
2022-11-03T04:47:03.611Z,132.3
2022-11-03T04:51:45.923Z,146.89
2022-11-03T04:56:28.149Z,132.8
2022-11-03T05:01:09.496Z,131.8
2022-11-03T05:05:51.756Z,138.89
2022-11-03T05:10:34.089Z,134.5
2022-11-03T05:19:58.615Z,172
2022-11-03T05:24:40.902Z,85.4
2022-11-03T05:29:23.159Z,103.1
2022-11-03T05:38:47.814Z,180.5
2022-11-03T05:43:29.177Z,146.2
2022-11-03T05:48:10.357Z,71.69
2022-11-03T05:52:52.579Z,58.9
2022-11-03T05:57:33.884Z,50.4
2022-11-03T06:02:16.202Z,64.8
2022-11-03T06:06:58.566Z,51.8
2022-11-03T06:11:40.773Z,49.7
2022-11-03T06:16:23.083Z,53.2
2022-11-03T06:21:05.417Z,46.1
2022-11-03T06:25:47.560Z,42
2022-11-03T06:30:29.921Z,36.7
2022-11-03T06:35:11.182Z,46.8
2022-11-03T06:39:52.495Z,56.7
2022-11-03T06:44:34.809Z,40.4
2022-11-03T06:49:17.120Z,55
2022-11-03T06:53:59.378Z,47.6
2022-11-03T06:58:41.657Z,51
2022-11-03T07:03:23.982Z,52.6
2022-11-03T07:08:06.172Z,48.9
2022-11-03T07:12:48.477Z,38.8
2022-11-03T07:17:30.792Z,38.9
2022-11-03T07:22:13.054Z,41.8
2022-11-03T07:26:55.337Z,41
2022-11-03T07:31:37.628Z,38.8
2022-11-03T07:36:19.913Z,45.9
2022-11-03T07:41:01.162Z,39.2
2022-11-03T07:45:43.465Z,30.2
2022-11-03T07:50:25.830Z,39.3
2022-11-03T07:59:50.305Z,28.7
2022-11-03T08:04:32.616Z,32.59
2022-11-03T08:09:14.907Z,15.2
2022-11-03T08:13:57.137Z,13
2022-11-03T08:18:39.448Z,8.8
2022-11-03T08:23:21.665Z,11.1
2022-11-03T08:28:03.975Z,11
2022-11-03T08:32:46.312Z,8.3
2022-11-03T08:37:28.501Z,3.7
2022-11-03T08:42:09.818Z,8.3
2022-11-03T08:46:52.157Z,6.4
2022-11-03T08:51:34.441Z,2.9
2022-11-03T08:56:16.665Z,3.3
2022-11-03T09:00:58.963Z,2.8
2022-11-03T09:05:41.322Z,5.2
2022-11-03T09:10:23.489Z,1.5
2022-11-03T09:15:05.808Z,6.4
2022-11-03T09:19:48.114Z,4.19
2022-11-03T09:24:30.338Z,6.5
2022-11-03T09:29:12.639Z,3.3
2022-11-03T09:33:54.969Z,2.3
2022-11-03T09:38:37.165Z,5
2022-11-03T09:43:18.549Z,6.2
2022-11-03T09:48:00.897Z,6.1
2022-11-03T09:52:43.101Z,1.9
2022-11-03T09:57:25.315Z,2.7
2022-11-03T10:02:07.629Z,4.9
2022-11-03T10:06:49.839Z,6.6
2022-11-03T10:11:32.150Z,9.1
2022-11-03T10:16:14.462Z,3.4
2022-11-03T10:20:56.672Z,8.3
2022-11-03T10:25:38.987Z,4.8
2022-11-03T10:30:21.302Z,6.2
2022-11-03T10:35:03.511Z,3.1
2022-11-03T10:39:45.827Z,5.6
2022-11-03T10:44:27.133Z,7.5
2022-11-03T10:49:09.350Z,3.5
2022-11-03T10:53:51.661Z,2.8
2022-11-03T10:58:33.973Z,4.9
2022-11-03T11:03:16.188Z,4.69
2022-11-03T11:07:58.588Z,6.6
2022-11-03T11:12:40.809Z,3.9
2022-11-03T11:17:23.028Z,5.5
2022-11-03T11:22:05.341Z,5
2022-11-03T11:26:47.660Z,3.8
2022-11-03T11:31:29.865Z,10.4
2022-11-03T11:40:54.522Z,7.5
2022-11-03T11:45:35.808Z,3.5
2022-11-03T11:50:18.016Z,9
2022-11-03T11:55:00.322Z,5.9
2022-11-03T11:59:42.636Z,8
2022-11-03T12:04:24.857Z,4.9
2022-11-03T12:09:07.192Z,8.39
2022-11-03T12:13:49.474Z,5.2
2022-11-03T12:18:31.679Z,3.5
2022-11-03T12:23:14.015Z,3.2
2022-11-03T12:27:56.303Z,4.69
2022-11-03T12:37:20.825Z,5.5
2022-11-03T12:42:03.134Z,8.2
2022-11-03T12:46:45.415Z,8.5
2022-11-03T12:51:26.656Z,5.9
2022-11-03T12:56:08.966Z,12.1
2022-11-03T13:00:51.278Z,6.3
2022-11-03T13:05:33.490Z,7.1
2022-11-03T13:10:15.808Z,8.5
2022-11-03T13:14:58.108Z,5.6
2022-11-03T13:19:40.330Z,5.9
2022-11-03T13:24:22.637Z,11.1
2022-11-03T13:29:04.964Z,6.7
2022-11-03T13:33:47.155Z,9.3
2022-11-03T13:43:11.863Z,5.3
2022-11-03T13:47:53.994Z,4.9
2022-11-03T13:52:35.343Z,6.6
2022-11-03T13:57:17.603Z,8.2
2022-11-03T14:01:59.985Z,7.4
2022-11-03T14:06:42.246Z,11.1
2022-11-03T14:11:24.476Z,6.1
2022-11-03T14:20:49.033Z,5.9
2022-11-03T14:25:31.369Z,6.7
2022-11-03T14:30:13.702Z,4.1
2022-11-03T14:34:55.809Z,6.8
2022-11-03T14:39:38.114Z,13.3
2022-11-03T14:49:02.634Z,4.5
2022-11-03T15:03:08.591Z,5.8
2022-11-03T15:07:49.873Z,6.6
2022-11-03T15:12:31.113Z,14.7
2022-11-03T15:17:13.456Z,6.4
2022-11-03T15:21:55.729Z,12.9
2022-11-03T15:26:38.042Z,10.1
2022-11-03T15:31:20.270Z,8.8
2022-11-03T15:36:02.544Z,7.2
2022-11-03T15:40:44.877Z,8.2
2022-11-03T15:45:27.080Z,13.4
2022-11-03T15:50:09.373Z,9.1
2022-11-03T15:54:51.691Z,9.1
2022-11-03T15:59:33.023Z,12.1
2022-11-03T16:04:14.212Z,9.2
2022-11-03T16:08:56.520Z,8.7
2022-11-03T16:13:38.830Z,9.39
2022-11-03T16:18:21.045Z,8.3
2022-11-03T16:23:03.363Z,8.89
2022-11-03T16:27:45.676Z,15
2022-11-03T16:32:27.977Z,6.8
2022-11-03T16:37:10.204Z,10.5
2022-11-03T16:41:52.498Z,11.6
2022-11-03T16:46:34.811Z,9.8
2022-11-03T16:51:17.019Z,10.2
2022-11-03T17:00:41.648Z,15.2
2022-11-03T17:05:22.859Z,17.5
2022-11-03T17:10:05.169Z,14.7
2022-11-03T17:14:47.482Z,11.9
2022-11-03T17:19:29.696Z,19
2022-11-03T17:24:12.006Z,12.5
2022-11-03T17:28:54.316Z,16.4
2022-11-03T17:33:36.523Z,10.9
2022-11-03T17:38:18.864Z,12.1
2022-11-03T17:43:01.151Z,15.5
2022-11-03T17:47:43.468Z,17.9
2022-11-03T17:52:25.672Z,15
2022-11-03T17:57:07.983Z,12.4
2022-11-03T18:01:50.415Z,10.6
2022-11-03T18:06:31.641Z,13.4
2022-11-03T18:11:13.852Z,13.4
2022-11-03T18:15:56.129Z,14.8
2022-11-03T18:20:38.342Z,15.1
2022-11-03T18:25:20.769Z,17.6
2022-11-03T18:30:02.964Z,13.1
2022-11-03T18:34:45.233Z,12.8
2022-11-03T18:39:27.485Z,12.8
2022-11-03T18:44:09.817Z,9.6
2022-11-03T18:48:52.108Z,10.2
2022-11-03T18:53:34.320Z,14
2022-11-03T18:58:16.635Z,18.2
2022-11-03T19:02:59.007Z,13
2022-11-03T19:07:40.181Z,12.9
2022-11-03T19:12:22.491Z,12.3
2022-11-03T19:17:04.783Z,14.9
2022-11-03T19:21:47.008Z,23.3
2022-11-03T19:26:29.302Z,12
2022-11-03T19:31:11.616Z,16.2
2022-11-03T19:35:53.825Z,11.8
2022-11-03T19:40:36.221Z,12.2
2022-11-03T19:45:18.492Z,8.3
2022-11-03T19:50:00.762Z,9.5
2022-11-03T19:54:42.975Z,8.1
2022-11-03T19:59:25.293Z,7.6
2022-11-03T20:04:07.597Z,10.4
2022-11-03T20:08:48.803Z,6.7
2022-11-03T20:13:31.117Z,7.4
2022-11-03T20:18:13.429Z,8.6
2022-11-03T20:22:55.669Z,12.7
2022-11-03T20:27:37.952Z,7.9
2022-11-03T20:32:20.266Z,9.1
2022-11-03T20:37:02.479Z,14.3
2022-11-03T20:41:44.790Z,10.3
2022-11-03T20:46:27.042Z,9
2022-11-03T20:51:09.388Z,9.1
2022-11-03T20:55:51.668Z,11.8
2022-11-03T21:00:33.880Z,12.1
2022-11-03T21:05:16.222Z,14.7
2022-11-03T21:09:57.502Z,13.1
2022-11-03T21:14:39.811Z,14.6
2022-11-03T21:19:22.056Z,7.6
2022-11-03T21:24:04.384Z,11
2022-11-03T21:28:46.671Z,11
2022-11-03T21:33:28.882Z,7.9
2022-11-03T21:38:11.174Z,17.29
2022-11-03T21:42:52.507Z,12.5
2022-11-03T21:47:34.815Z,10.6
2022-11-03T21:52:17.047Z,12.1
2022-11-03T21:56:59.373Z,12.2
2022-11-03T22:01:41.638Z,10.9
2022-11-03T22:06:23.863Z,12.4
2022-11-03T22:11:06.159Z,11.1
2022-11-03T22:15:48.482Z,11.7
2022-11-03T22:20:30.693Z,11.3
2022-11-03T22:25:13.005Z,16.7
2022-11-03T22:29:55.314Z,11.6
2022-11-03T22:34:37.525Z,16.9
2022-11-03T22:39:19.860Z,13.5
2022-11-03T22:44:01.146Z,17.1
2022-11-03T22:48:43.354Z,12
2022-11-03T22:53:25.674Z,27.1
2022-11-03T22:58:07.982Z,14.7
2022-11-03T23:02:50.195Z,16.1
2022-11-03T23:07:32.576Z,10.5
2022-11-03T23:12:14.819Z,14.3
2022-11-03T23:16:57.032Z,24.3
2022-11-03T23:21:39.343Z,16.9
2022-11-03T23:26:21.677Z,16.79
2022-11-03T23:31:03.865Z,12.7
2022-11-03T23:35:46.180Z,13
2022-11-03T23:40:28.491Z,15.7
2022-11-03T23:45:09.811Z,22.7
2022-11-03T23:49:52.031Z,14.9
2022-11-03T23:54:34.329Z,15.6
2022-11-03T23:59:16.667Z,15.7
